Time;durP1;ratioP1;P1;durP2;ratioP2;P2;SDS_P1;SDS_P2;PMS_P1;PMS_P2;Temp;Humidity;BMP_temperature;BMP_pressure;BME280_temperature;BME280_humidity;BME280_pressure;Samples;Min_cycle;Max_cycle;Signal;HPM_P1;HPM_P2
2022/05/21 00:02:05;;;;;;;1.38;1.23;;;12.50;99.90;;;;;;5054486;28;20187;-59
2022/05/21 00:04:30;;;;;;;1.80;0.80;;;12.40;99.90;;;;;;5054424;28;20637;-59
2022/05/21 00:06:57;;;;;;;0.90;0.85;;;12.50;99.90;;;;;;5054803;28;20254;-58
2022/05/21 00:09:24;;;;;;;1.05;0.90;;;12.50;99.90;;;;;;5054586;28;20252;-59
2022/05/21 00:11:50;;;;;;;2.08;1.02;;;12.40;99.90;;;;;;5054642;28;20258;-59
2022/05/21 00:14:16;;;;;;;0.73;0.70;;;12.30;99.90;;;;;;5036527;28;20301;-59
2022/05/21 00:16:41;;;;;;;1.00;0.90;;;12.40;99.90;;;;;;5036731;28;20194;-58
2022/05/21 00:19:07;;;;;;;1.00;0.90;;;12.30;99.90;;;;;;5054190;28;20552;-58
2022/05/21 00:21:33;;;;;;;2.33;0.90;;;12.30;99.90;;;;;;5054560;28;20683;-58
2022/05/21 00:23:58;;;;;;;1.30;1.00;;;12.20;99.90;;;;;;5036603;28;20522;-59
2022/05/21 00:26:25;;;;;;;0.85;0.85;;;12.40;99.90;;;;;;5054591;28;20636;-59
2022/05/21 00:28:51;;;;;;;1.08;0.73;;;12.40;99.90;;;;;;5054190;28;20684;-59
2022/05/21 00:31:17;;;;;;;0.90;0.90;;;12.30;99.90;;;;;;5054150;28;20197;-59
2022/05/21 00:33:45;;;;;;;2.78;1.05;;;12.30;99.90;;;;;;5053878;28;20179;-59
2022/05/21 00:36:12;;;;;;;1.52;1.02;;;12.30;99.90;;;;;;5054289;28;20176;-59
2022/05/21 00:38:39;;;;;;;1.23;1.02;;;12.30;99.90;;;;;;5054128;28;20186;-59
2022/05/21 00:41:06;;;;;;;1.30;1.10;;;12.30;99.90;;;;;;5053776;28;20628;-59
2022/05/21 00:43:44;;;;;;;1.38;0.90;;;12.30;99.90;;;;;;5053869;28;20229;-58
2022/05/21 00:46:17;;;;;;;0.80;0.80;;;12.20;99.90;;;;;;5053687;28;20201;-60
2022/05/21 00:48:44;;;;;;;1.65;1.20;;;12.30;99.90;;;;;;5053832;28;20203;-58
2022/05/21 00:51:20;;;;;;;2.35;1.25;;;12.20;99.90;;;;;;5054106;28;20171;-59
2022/05/21 00:53:47;;;;;;;1.52;1.13;;;12.20;99.90;;;;;;5053747;28;20167;-59
2022/05/21 00:56:15;;;;;;;0.93;0.88;;;12.20;99.90;;;;;;5053686;28;20179;-59
2022/05/21 01:01:30;;;;;;;0.98;0.75;;;12.20;99.90;;;;;;5054123;28;20226;-59
2022/05/21 01:03:56;;;;;;;2.10;1.20;;;12.10;99.90;;;;;;5035675;28;20171;-58
2022/05/21 01:06:22;;;;;;;1.30;0.90;;;12.20;99.90;;;;;;5035854;28;20178;-60
2022/05/21 01:08:48;;;;;;;1.75;0.80;;;12.20;99.90;;;;;;5036024;28;20223;-59
2022/05/21 01:11:16;;;;;;;1.33;1.20;;;12.20;99.90;;;;;;5035741;28;20207;-58
2022/05/21 01:13:45;;;;;;;0.98;0.77;;;12.20;99.90;;;;;;5053562;28;20194;-59
2022/05/21 01:16:13;;;;;;;1.15;0.90;;;12.20;99.90;;;;;;5053693;28;20174;-59
2022/05/21 01:18:38;;;;;;;0.82;0.80;;;12.20;99.90;;;;;;5053277;28;20318;-59
2022/05/21 01:21:05;;;;;;;1.15;1.02;;;12.20;99.90;;;;;;5053189;28;20182;-59
2022/05/21 01:23:31;;;;;;;1.52;1.10;;;12.20;99.90;;;;;;5053227;28;20293;-59
2022/05/21 01:25:59;;;;;;;1.02;0.90;;;12.20;99.90;;;;;;5052987;28;20258;-59
2022/05/21 01:28:30;;;;;;;1.42;0.80;;;12.30;99.90;;;;;;5035487;28;20207;-59
2022/05/21 01:30:58;;;;;;;1.02;0.90;;;12.30;99.90;;;;;;5053230;28;20202;-59
2022/05/21 01:33:30;;;;;;;2.63;0.85;;;12.30;99.90;;;;;;5053016;28;20171;-59
2022/05/21 01:35:58;;;;;;;1.63;0.95;;;12.20;99.90;;;;;;5053192;28;20711;-59
2022/05/21 01:38:24;;;;;;;0.98;0.85;;;12.30;99.90;;;;;;5052894;28;20301;-59
2022/05/21 01:40:50;;;;;;;1.63;0.90;;;12.20;99.90;;;;;;5053520;28;20177;-59
2022/05/21 01:46:00;;;;;;;2.28;1.00;;;12.20;99.90;;;;;;5053027;28;20203;-59
2022/05/21 01:48:28;;;;;;;2.25;0.82;;;12.10;99.90;;;;;;5034707;28;20250;-59
2022/05/21 01:50:54;;;;;;;1.27;0.82;;;12.10;99.90;;;;;;5052857;28;20198;-58
2022/05/21 01:53:22;;;;;;;1.80;0.88;;;12.20;99.90;;;;;;5054796;28;20233;-59
2022/05/21 01:55:49;;;;;;;1.50;0.93;;;12.10;99.90;;;;;;5057120;28;20175;-58
2022/05/21 01:58:15;;;;;;;1.33;0.90;;;12.10;99.90;;;;;;5057024;28;20175;-58
2022/05/21 02:00:42;;;;;;;0.60;0.60;;;12.10;99.90;;;;;;5057212;28;20279;-58
2022/05/21 02:03:09;;;;;;;1.33;0.90;;;12.10;99.90;;;;;;5056712;28;20186;-59
2022/05/21 02:05:35;;;;;;;1.23;0.90;;;12.10;99.90;;;;;;5057271;28;20182;-59
2022/05/21 02:08:02;;;;;;;1.15;0.90;;;12.10;99.90;;;;;;5039177;28;20607;-59
2022/05/21 02:10:27;;;;;;;1.13;0.80;;;12.10;99.90;;;;;;5056975;28;20175;-58
2022/05/21 02:12:53;;;;;;;1.80;1.17;;;12.00;99.90;;;;;;5057029;28;20533;-58
2022/05/21 02:15:18;;;;;;;1.60;0.95;;;11.90;99.90;;;;;;5056912;28;20179;-59
2022/05/21 02:17:44;;;;;;;0.98;0.95;;;11.90;99.90;;;;;;5056544;28;20183;-58
2022/05/21 02:20:10;;;;;;;1.55;0.85;;;11.80;99.90;;;;;;5056787;28;20186;-59
2022/05/21 02:22:36;;;;;;;1.70;1.05;;;11.80;99.90;;;;;;5056728;28;20175;-58
2022/05/21 02:25:07;;;;;;;1.77;1.10;;;11.80;99.90;;;;;;5056580;28;20183;-58
2022/05/21 02:27:33;;;;;;;1.30;1.20;;;11.70;99.90;;;;;;5056749;28;20584;-59
2022/05/21 02:29:59;;;;;;;1.38;0.93;;;11.80;99.90;;;;;;5056584;28;20261;-59
2022/05/21 02:32:24;;;;;;;1.08;0.95;;;11.80;99.90;;;;;;5056303;28;20179;-59
2022/05/21 02:34:50;;;;;;;1.65;0.98;;;11.70;99.90;;;;;;5038854;28;20551;-59
2022/05/21 02:40:00;;;;;;;2.15;1.00;;;11.70;99.90;;;;;;5056434;28;20283;-59
2022/05/21 02:42:45;;;;;;;1.38;1.15;;;11.70;99.90;;;;;;5056227;28;20218;-59
2022/05/21 02:45:16;;;;;;;1.42;1.15;;;11.70;99.90;;;;;;5041379;28;20183;-59
2022/05/21 02:47:43;;;;;;;1.75;1.10;;;11.70;99.90;;;;;;5056185;28;20171;-59
2022/05/21 02:50:10;;;;;;;3.08;1.42;;;11.80;99.90;;;;;;5056030;28;20207;-58
2022/05/21 02:52:36;;;;;;;1.80;1.05;;;11.70;99.90;;;;;;5055555;28;20171;-58
2022/05/21 02:55:03;;;;;;;0.98;0.88;;;11.60;99.90;;;;;;5055908;28;20312;-58
2022/05/21 02:57:28;;;;;;;1.40;1.08;;;11.70;99.90;;;;;;5037847;28;20183;-59
2022/05/21 02:59:54;;;;;;;2.38;1.02;;;11.70;99.90;;;;;;5055959;28;20178;-59
2022/05/21 03:02:20;;;;;;;1.83;1.50;;;11.80;99.90;;;;;;5055962;28;20633;-59
2022/05/21 03:04:46;;;;;;;1.30;1.10;;;11.70;99.90;;;;;;5055704;28;20699;-61
2022/05/21 03:07:12;;;;;;;2.08;1.27;;;11.70;99.90;;;;;;5055915;28;20163;-58
2022/05/21 03:12:22;;;;;;;2.58;1.52;;;11.70;99.90;;;;;;5055905;28;20225;-59
2022/05/21 03:14:48;;;;;;;1.40;1.17;;;11.80;99.90;;;;;;5055548;28;20560;-59
2022/05/21 03:17:13;;;;;;;1.40;1.10;;;11.80;99.90;;;;;;5055540;28;20163;-59
2022/05/21 03:19:39;;;;;;;2.08;1.40;;;11.80;99.90;;;;;;5037948;28;20353;-58
2022/05/21 03:22:05;;;;;;;1.55;1.05;;;11.90;99.90;;;;;;5055412;28;20202;-59
2022/05/21 03:24:31;;;;;;;2.17;1.40;;;11.90;99.90;;;;;;5055386;28;20629;-58
2022/05/21 03:26:57;;;;;;;2.58;1.35;;;11.90;99.90;;;;;;5055712;28;20175;-58
2022/05/21 03:29:24;;;;;;;1.50;1.23;;;11.90;99.90;;;;;;5055642;28;20214;-59
2022/05/21 03:31:49;;;;;;;1.40;1.30;;;11.90;99.90;;;;;;5055307;28;20207;-59
2022/05/21 03:34:15;;;;;;;1.40;1.30;;;11.80;99.90;;;;;;5055249;28;20207;-58
2022/05/21 03:36:41;;;;;;;4.38;1.77;;;11.80;99.90;;;;;;5055197;28;20180;-58
2022/05/21 03:39:06;;;;;;;2.47;1.48;;;11.90;99.90;;;;;;5055035;28;20187;-58
2022/05/21 03:41:32;;;;;;;2.65;1.40;;;11.90;99.90;;;;;;5055320;28;20178;-58
2022/05/21 03:44:00;;;;;;;1.70;1.60;;;11.80;99.90;;;;;;5055355;28;20178;-59
2022/05/21 03:46:26;;;;;;;2.55;1.60;;;11.90;99.90;;;;;;5055150;28;20179;-59
2022/05/21 03:48:52;;;;;;;2.38;1.60;;;11.90;99.90;;;;;;5054913;28;20249;-58
2022/05/21 03:51:17;;;;;;;3.35;1.70;;;11.90;99.90;;;;;;5036945;28;20183;-58
2022/05/21 03:53:43;;;;;;;2.60;1.55;;;11.90;99.90;;;;;;5054913;28;20183;-59
2022/05/21 03:56:09;;;;;;;2.13;1.90;;;12.00;99.90;;;;;;5054837;28;20225;-58
2022/05/21 03:58:34;;;;;;;2.58;1.77;;;12.00;99.90;;;;;;5054991;28;20179;-59
2022/05/21 04:01:00;;;;;;;2.63;1.80;;;11.90;99.90;;;;;;5054939;28;20516;-59
2022/05/21 04:03:26;;;;;;;2.20;1.90;;;12.00;99.90;;;;;;5037246;28;20178;-59
2022/05/21 04:05:56;;;;;;;2.08;1.73;;;12.10;99.90;;;;;;5054654;28;20180;-58
2022/05/21 04:08:23;;;;;;;2.95;2.15;;;12.10;99.90;;;;;;5054507;28;20674;-59
2022/05/21 04:10:49;;;;;;;2.35;1.88;;;12.10;99.90;;;;;;5036915;28;20183;-58
2022/05/21 04:13:16;;;;;;;3.15;2.05;;;12.10;99.90;;;;;;5054663;28;20505;-59
2022/05/21 04:15:42;;;;;;;4.63;2.10;;;12.10;99.90;;;;;;5053950;28;20168;-58
2022/05/21 04:18:08;;;;;;;3.15;2.05;;;12.20;99.90;;;;;;5054434;28;20175;-62
2022/05/21 04:20:33;;;;;;;3.53;1.83;;;12.20;99.90;;;;;;5036613;28;20171;-59
2022/05/21 04:22:59;;;;;;;3.38;2.35;;;12.30;99.90;;;;;;5054724;28;20233;-59
2022/05/21 04:25:25;;;;;;;3.00;1.90;;;12.30;99.90;;;;;;5054547;28;20206;-59
2022/05/21 04:27:51;;;;;;;2.13;1.80;;;12.30;99.90;;;;;;5054299;28;20217;-59
2022/05/21 04:30:25;;;;;;;1.92;1.70;;;12.30;99.90;;;;;;5054047;28;20187;-59
2022/05/21 04:32:52;;;;;;;2.05;1.65;;;12.40;99.90;;;;;;5054197;28;20178;-59
2022/05/21 04:35:19;;;;;;;2.10;1.63;;;12.50;99.90;;;;;;5054098;28;20176;-59
2022/05/21 04:37:45;;;;;;;1.73;1.30;;;12.50;99.90;;;;;;5054217;28;20168;-59
2022/05/21 04:40:17;;;;;;;1.83;1.52;;;12.50;99.90;;;;;;5054217;28;20175;-59
2022/05/21 04:42:43;;;;;;;2.47;2.03;;;12.60;99.90;;;;;;5054147;28;20309;-58
2022/05/21 04:45:09;;;;;;;3.42;2.45;;;12.70;99.90;;;;;;5053857;28;20266;-59
2022/05/21 04:47:35;;;;;;;3.72;1.88;;;12.60;99.90;;;;;;5054114;28;20305;-58
2022/05/21 04:50:01;;;;;;;4.22;2.22;;;12.60;99.90;;;;;;5053612;28;20206;-59
2022/05/21 04:52:27;;;;;;;3.67;1.70;;;12.60;99.90;;;;;;5053940;28;20198;-59
2022/05/21 04:54:53;;;;;;;3.15;2.13;;;12.60;99.90;;;;;;5053928;28;20616;-59
2022/05/21 04:57:18;;;;;;;4.00;2.10;;;12.80;99.90;;;;;;5036319;28;20648;-59
2022/05/21 04:59:44;;;;;;;3.25;2.10;;;12.70;99.90;;;;;;5053596;28;20167;-58
2022/05/21 05:02:09;;;;;;;2.53;2.33;;;12.80;99.90;;;;;;5053608;28;20202;-59
2022/05/21 05:04:35;;;;;;;3.95;1.83;;;12.90;99.90;;;;;;5053463;28;20245;-59
2022/05/21 05:07:06;;;;;;;2.97;2.33;;;13.00;99.90;;;;;;5053467;28;20178;-58
2022/05/21 05:09:41;;;;;;;4.13;2.20;;;13.10;99.90;;;;;;5053571;28;20207;-58
2022/05/21 05:12:08;;;;;;;3.55;2.08;;;13.20;99.90;;;;;;5053613;28;20254;-58
2022/05/21 05:14:34;;;;;;;2.25;1.88;;;13.20;99.90;;;;;;5035693;28;20258;-60
2022/05/21 05:17:00;;;;;;;3.30;2.22;;;13.30;99.90;;;;;;5035519;28;20178;-59
2022/05/21 05:19:29;;;;;;;3.28;2.30;;;13.40;99.90;;;;;;5035775;28;20183;-59
2022/05/21 05:21:55;;;;;;;2.22;2.00;;;13.40;99.90;;;;;;5053344;28;20262;-59
2022/05/21 05:24:20;;;;;;;4.95;2.22;;;13.40;99.90;;;;;;5053380;28;20198;-59
2022/05/21 05:26:46;;;;;;;2.67;2.30;;;13.50;99.90;;;;;;5052863;28;20207;-59
2022/05/21 05:29:12;;;;;;;4.47;2.30;;;13.60;99.90;;;;;;5052555;28;20231;-58
2022/05/21 05:31:38;;;;;;;5.88;2.72;;;13.80;99.90;;;;;;5052970;28;20187;-59
2022/05/21 05:34:04;;;;;;;5.03;2.92;;;13.90;99.90;;;;;;5053269;28;20187;-59
2022/05/21 05:36:29;;;;;;;3.28;1.73;;;13.90;99.90;;;;;;5053162;28;20644;-58
2022/05/21 05:38:59;;;;;;;2.75;2.05;;;13.90;99.90;;;;;;5053187;28;20175;-59
2022/05/21 05:41:26;;;;;;;3.33;2.63;;;13.90;99.90;;;;;;5053064;28;20171;-59
2022/05/21 05:43:54;;;;;;;4.45;2.20;;;13.90;99.90;;;;;;5053018;28;20171;-59
2022/05/21 05:46:19;;;;;;;4.60;2.47;;;14.00;99.90;;;;;;5052872;28;20241;-59
2022/05/21 05:48:45;;;;;;;4.10;2.10;;;14.00;99.90;;;;;;5053082;28;20203;-59
2022/05/21 05:51:11;;;;;;;4.32;2.20;;;14.10;99.90;;;;;;5053030;28;20532;-59
2022/05/21 05:53:36;;;;;;;4.10;2.20;;;14.10;99.90;;;;;;5053018;28;20175;-59
2022/05/21 05:56:06;;;;;;;2.92;1.80;;;14.10;99.90;;;;;;5052984;28;20648;-59
2022/05/21 06:01:16;;;;;;;3.15;2.15;;;14.10;99.90;;;;;;5053164;28;20241;-59
2022/05/21 06:03:42;;;;;;;5.05;2.53;;;14.10;99.90;;;;;;5052972;28;20176;-59
2022/05/21 06:06:07;;;;;;;3.03;1.90;;;14.30;99.90;;;;;;5052952;28;20179;-58
2022/05/21 06:08:34;;;;;;;4.05;2.28;;;14.40;99.90;;;;;;5052702;28;20207;-60
2022/05/21 06:10:59;;;;;;;4.45;2.67;;;14.60;99.90;;;;;;5052777;28;20179;-60
2022/05/21 06:13:25;;;;;;;3.25;2.50;;;14.70;99.90;;;;;;5052675;28;20262;-59
2022/05/21 06:15:51;;;;;;;4.07;2.55;;;14.80;99.90;;;;;;5052939;28;20289;-59
2022/05/21 06:18:20;;;;;;;4.90;2.50;;;14.90;99.90;;;;;;5034973;28;20587;-59
2022/05/21 06:20:48;;;;;;;2.25;2.03;;;15.00;99.90;;;;;;5052816;28;20211;-60
2022/05/21 06:23:14;;;;;;;2.35;1.85;;;15.00;99.90;;;;;;5052684;28;20183;-59
2022/05/21 06:25:40;;;;;;;4.25;2.10;;;15.10;99.90;;;;;;5052722;28;20254;-59
2022/05/21 06:28:07;;;;;;;6.22;2.72;;;15.20;99.90;;;;;;5052751;28;20175;-59
2022/05/21 06:30:35;;;;;;;4.85;2.22;;;15.20;99.90;;;;;;5052573;28;20176;-59
2022/05/21 06:33:33;;;;;;;4.50;2.10;;;15.30;99.90;;;;;;5052648;28;20172;-59
2022/05/21 06:36:09;;;;;;;3.33;2.38;;;15.30;99.90;;;;;;5029629;28;20226;-59
2022/05/21 06:38:35;;;;;;;3.67;2.53;;;15.40;99.90;;;;;;5053058;28;20175;-59
2022/05/21 06:41:04;;;;;;;3.97;2.53;;;15.30;99.90;;;;;;5056341;28;20182;-59
2022/05/21 06:43:30;;;;;;;3.42;2.15;;;15.30;99.90;;;;;;5056196;28;20524;-59
2022/05/21 06:45:56;;;;;;;5.63;2.35;;;15.20;99.90;;;;;;5056142;28;20694;-59
2022/05/21 06:48:21;;;;;;;3.13;1.75;;;15.20;99.90;;;;;;5055972;28;20215;-59
2022/05/21 06:50:47;;;;;;;3.25;2.08;;;15.30;99.90;;;;;;5056023;28;20521;-59
2022/05/21 06:53:13;;;;;;;2.33;2.10;;;15.30;99.90;;;;;;5056151;28;20175;-59
2022/05/21 06:55:40;;;;;;;3.47;1.90;;;15.20;99.90;;;;;;5056109;28;20213;-59
2022/05/21 06:58:06;;;;;;;3.45;2.40;;;15.10;99.90;;;;;;5055615;28;20695;-58
2022/05/21 07:00:32;;;;;;;3.45;2.15;;;15.10;99.90;;;;;;5055938;28;20321;-59
2022/05/21 07:02:57;;;;;;;2.70;1.98;;;15.10;99.90;;;;;;5055852;28;20179;-59
2022/05/21 07:08:20;;;;;;;3.13;2.20;;;15.10;99.90;;;;;;5055728;28;20186;-59
2022/05/21 07:10:46;;;;;;;8.82;2.25;;;15.10;99.90;;;;;;5055713;28;20643;-59
2022/05/21 07:13:12;;;;;;;3.53;2.10;;;15.00;99.90;;;;;;5055647;28;20187;-59
2022/05/21 07:15:38;;;;;;;5.22;2.60;;;15.00;99.90;;;;;;5055589;28;20175;-59
2022/05/21 07:18:04;;;;;;;4.20;2.60;;;15.00;99.90;;;;;;5055463;28;20190;-59
2022/05/21 07:20:30;;;;;;;3.67;2.80;;;15.10;99.90;;;;;;5055545;28;20171;-59
2022/05/21 07:22:57;;;;;;;5.25;2.83;;;15.10;99.90;;;;;;5055404;28;20253;-58
2022/05/21 07:25:26;;;;;;;5.97;3.10;;;15.20;99.90;;;;;;5055568;28;20167;-59
2022/05/21 07:27:52;;;;;;;4.53;2.90;;;15.20;99.90;;;;;;5055281;28;20613;-59
2022/05/21 07:30:19;;;;;;;3.50;3.10;;;15.20;99.90;;;;;;5055314;28;20616;-59
2022/05/21 07:32:45;;;;;;;3.53;2.63;;;15.20;99.90;;;;;;5055507;28;20254;-58
2022/05/21 07:35:15;;;;;;;4.30;2.60;;;15.30;99.90;;;;;;5055354;28;20167;-59
2022/05/21 07:37:41;;;;;;;4.43;2.97;;;15.40;99.90;;;;;;5055328;28;20171;-59
2022/05/21 07:40:09;;;;;;;6.07;3.20;;;15.30;99.90;;;;;;5055216;28;20190;-59
2022/05/21 07:42:36;;;;;;;6.18;4.30;;;15.40;99.90;;;;;;5055133;28;20231;-59
2022/05/21 07:45:04;;;;;;;5.38;3.53;;;15.50;99.90;;;;;;5054977;28;20658;-59
2022/05/21 07:47:30;;;;;;;5.47;3.75;;;15.50;99.90;;;;;;5055097;28;20185;-59
2022/05/21 07:49:58;;;;;;;5.45;4.03;;;15.50;99.90;;;;;;5054605;28;20671;-59
2022/05/21 07:52:26;;;;;;;5.78;3.75;;;15.60;99.90;;;;;;5054385;28;20513;-59
2022/05/21 07:54:52;;;;;;;5.07;3.70;;;15.70;99.90;;;;;;5054847;28;20629;-59
2022/05/21 07:57:18;;;;;;;6.25;3.65;;;15.80;99.90;;;;;;5054737;28;20174;-58
2022/05/21 07:59:44;;;;;;;4.63;3.60;;;15.80;99.90;;;;;;5054990;28;20183;-58
2022/05/21 08:02:12;;;;;;;5.85;3.95;;;15.90;99.90;;;;;;5036843;28;20191;-60
2022/05/21 08:04:38;;;;;;;6.38;3.50;;;16.00;99.90;;;;;;5054705;28;20175;-59
2022/05/21 08:07:04;;;;;;;4.28;3.88;;;16.10;99.90;;;;;;5054713;28;20172;-59
2022/05/21 08:09:30;;;;;;;5.45;3.35;;;16.20;99.90;;;;;;5054526;28;20286;-58
2022/05/21 08:11:56;;;;;;;4.68;3.15;;;16.40;99.90;;;;;;5054693;28;20597;-59
2022/05/21 08:14:21;;;;;;;4.60;3.28;;;16.50;99.90;;;;;;5054692;28;20270;-60
2022/05/21 08:16:49;;;;;;;4.13;3.10;;;16.50;99.90;;;;;;5037111;28;20191;-59
2022/05/21 08:19:16;;;;;;;4.15;3.03;;;16.50;99.90;;;;;;5054443;28;20592;-58
2022/05/21 08:21:42;;;;;;;6.35;3.47;;;16.60;99.90;;;;;;5054400;28;20182;-58
2022/05/21 08:26:59;;;;;;;5.30;3.20;;;16.70;99.90;;;;;;5054509;28;20194;-59
2022/05/21 08:29:36;;;;;;;5.00;3.20;;;16.70;99.90;;;;;;5054182;28;20203;-59
2022/05/21 08:32:03;;;;;;;4.93;3.40;;;16.80;99.90;;;;;;5054277;28;20171;-59
2022/05/21 08:34:30;;;;;;;3.40;3.10;;;16.90;99.90;;;;;;5054127;28;20171;-59
2022/05/21 08:36:57;;;;;;;5.72;3.33;;;16.80;99.90;;;;;;5054039;28;20178;-59
2022/05/21 08:39:23;;;;;;;5.45;3.30;;;16.80;99.90;;;;;;5053916;28;20186;-59
2022/05/21 08:42:20;;;;;;;3.22;2.85;;;16.70;99.90;;;;;;5054152;28;20251;-58
2022/05/21 08:44:48;;;;;;;4.05;3.00;;;16.90;99.90;;;;;;5054012;28;20179;-60
2022/05/21 08:47:26;;;;;;;4.57;3.25;;;17.00;99.90;;;;;;5036027;28;20175;-58
2022/05/21 08:50:11;;;;;;;8.82;3.00;;;17.00;99.90;;;;;;5053960;28;20213;-58
2022/05/21 08:53:05;;;;;;;3.53;2.65;;;16.90;99.90;;;;;;5053895;28;20190;-59
2022/05/21 08:55:39;;;;;;;4.57;2.90;;;16.90;99.90;;;;;;5053704;28;20171;-59
2022/05/21 08:58:43;;;;;;;4.95;3.28;;;17.40;99.90;;;;;;5053672;28;20635;-58
2022/05/21 09:01:10;;;;;;;5.53;3.50;;;17.90;99.90;;;;;;5047206;28;20207;-60
2022/05/21 09:03:36;;;;;;;4.90;3.05;;;18.30;99.90;;;;;;5053413;28;20175;-59
2022/05/21 09:06:11;;;;;;;4.90;3.47;;;18.50;99.90;;;;;;5053737;28;20176;-59
2022/05/21 09:08:47;;;;;;;5.53;3.10;;;18.90;99.90;;;;;;5053642;28;20732;-58
2022/05/21 09:11:19;;;;;;;4.18;3.45;;;18.80;99.90;;;;;;5053493;28;20167;-58
2022/05/21 09:14:08;;;;;;;7.30;3.53;;;18.40;99.90;;;;;;5053573;28;20537;-58
2022/05/21 09:16:54;;;;;;;4.63;3.42;;;17.90;99.90;;;;;;5035535;28;20176;-59
2022/05/21 09:19:25;;;;;;;4.72;2.85;;;17.60;99.90;;;;;;5053568;28;20686;-58
2022/05/21 09:22:01;;;;;;;5.55;3.28;;;17.30;99.90;;;;;;5053473;28;20175;-59
2022/05/21 09:24:32;;;;;;;4.10;3.28;;;17.30;99.90;;;;;;5053302;28;20167;-58
2022/05/21 09:26:58;;;;;;;5.68;3.35;;;17.10;99.90;;;;;;5053118;28;20175;-58
2022/05/21 09:29:33;;;;;;;3.95;3.33;;;17.30;99.90;;;;;;5053241;28;20233;-59
2022/05/21 09:32:14;;;;;;;4.95;3.33;;;17.30;99.90;;;;;;5053252;28;20179;-58
2022/05/21 09:34:40;;;;;;;3.97;3.20;;;17.30;99.90;;;;;;5053207;28;20182;-58
2022/05/21 09:37:16;;;;;;;5.90;3.70;;;17.20;99.90;;;;;;5053180;28;20180;-58
2022/05/21 09:39:42;;;;;;;6.50;3.78;;;17.30;99.90;;;;;;5035364;28;20175;-58
2022/05/21 09:45:22;;;;;;;3.90;3.03;;;17.30;99.90;;;;;;5053138;28;20666;-58
2022/05/21 09:45:22;;;;;;;4.43;3.55;;;17.40;99.90;;;;;;5052905;28;20201;-58
2022/05/21 09:47:52;;;;;;;3.85;3.42;;;18.00;99.90;;;;;;5035132;28;20221;-58
2022/05/21 09:50:24;;;;;;;5.97;3.50;;;18.40;99.90;;;;;;5053264;28;20301;-58
2022/05/21 09:52:50;;;;;;;5.55;3.85;;;18.90;99.90;;;;;;5053074;28;20180;-59
2022/05/21 09:55:26;;;;;;;5.53;4.15;;;19.40;99.90;;;;;;5052980;28;20178;-58
2022/05/21 09:57:52;;;;;;;4.47;3.47;;;19.60;99.90;;;;;;5052849;28;20178;-59
2022/05/21 10:00:51;;;;;;;3.50;3.05;;;19.60;99.90;;;;;;5052869;28;20195;-58
2022/05/21 10:03:53;;;;;;;4.05;3.30;;;19.20;99.90;;;;;;5053079;28;20663;-59
2022/05/21 10:06:34;;;;;;;5.18;3.90;;;19.00;99.90;;;;;;5052850;28;20175;-58
2022/05/21 10:12:37;;;;;;;7.38;3.42;;;19.60;99.90;;;;;;5052820;28;20210;-59
2022/05/21 10:15:11;;;;;;;4.68;3.30;;;19.30;99.90;;;;;;5055838;28;20176;-59
2022/05/21 10:17:39;;;;;;;5.55;3.50;;;18.90;99.90;;;;;;5056787;28;20525;-58
2022/05/21 10:20:04;;;;;;;4.53;3.42;;;18.60;99.90;;;;;;5056774;28;20189;-58
2022/05/21 10:22:33;;;;;;;4.55;3.50;;;18.90;99.90;;;;;;5056700;28;20171;-58
2022/05/21 10:25:07;;;;;;;3.28;2.67;;;18.70;99.90;;;;;;5056617;28;20231;-58
2022/05/21 10:28:04;;;;;;;4.82;3.25;;;18.50;99.90;;;;;;5056548;28;20167;-58
2022/05/21 10:30:54;;;;;;;3.80;3.00;;;18.30;99.90;;;;;;5056483;28;20541;-58
2022/05/21 10:33:50;;;;;;;5.28;3.10;;;18.20;99.90;;;;;;5056423;28;20179;-58
2022/05/21 10:36:16;;;;;;;7.38;3.45;;;18.70;99.90;;;;;;5056688;28;20224;-58
2022/05/21 10:38:59;;;;;;;4.18;3.30;;;18.90;99.90;;;;;;5056378;28;20179;-58
2022/05/21 10:41:41;;;;;;;4.05;3.65;;;18.90;99.90;;;;;;5056377;28;20529;-58
2022/05/21 10:44:13;;;;;;;4.53;3.58;;;19.00;99.90;;;;;;5056164;28;20258;-58
2022/05/21 10:47:02;;;;;;;4.95;3.03;;;19.50;99.90;;;;;;5056396;28;20182;-58
2022/05/21 10:49:54;;;;;;;4.00;3.13;;;19.80;99.90;;;;;;5056127;28;20285;-58
2022/05/21 10:52:40;;;;;;;3.03;2.63;;;20.00;99.90;;;;;;5055991;28;20194;-58
2022/05/21 10:55:08;;;;;;;4.22;2.72;;;20.10;99.90;;;;;;5056184;28;20218;-58
2022/05/21 10:58:09;;;;;;;3.45;3.08;;;20.30;99.90;;;;;;5056267;28;20195;-58
2022/05/21 11:01:01;;;;;;;3.53;2.45;;;20.70;99.90;;;;;;5042552;28;20583;-59
2022/05/21 11:04:17;;;;;;;2.38;2.17;;;20.80;99.90;;;;;;5056090;28;20163;-59
2022/05/21 11:06:54;;;;;;;4.88;2.30;;;20.90;99.90;;;;;;5055885;28;20176;-58
2022/05/21 11:09:33;;;;;;;1.92;1.70;;;20.70;99.90;;;;;;5055900;28;20258;-59
2022/05/21 11:12:08;;;;;;;2.95;2.17;;;20.90;99.90;;;;;;5055731;28;20590;-58
2022/05/21 11:14:39;;;;;;;2.95;2.20;;;20.90;99.90;;;;;;5055967;28;20169;-59
2022/05/21 11:17:16;;;;;;;3.90;2.42;;;21.10;99.90;;;;;;5055584;28;20176;-58
2022/05/21 11:20:00;;;;;;;2.50;1.85;;;21.20;99.90;;;;;;5055432;28;20540;-58
2022/05/21 11:22:39;;;;;;;2.55;1.98;;;21.20;99.90;;;;;;5055580;28;20650;-58
2022/05/21 11:25:18;;;;;;;2.42;2.05;;;21.30;99.90;;;;;;5055403;28;20221;-59
2022/05/21 11:28:14;;;;;;;2.17;1.83;;;21.40;99.90;;;;;;5055483;28;20171;-59
2022/05/21 11:30:40;;;;;;;2.83;2.20;;;21.90;99.90;;;;;;5055393;28;20206;-59
2022/05/21 11:39:06;;;;;;;2.53;1.55;;;21.80;99.90;;;;;;5051549;28;20589;-58
2022/05/21 11:41:53;;;;;;;1.52;1.40;;;21.90;99.90;;;;;;5055234;28;20182;-59
2022/05/21 11:47:06;;;;;;;1.40;1.30;;;21.90;99.90;;;;;;5055088;28;20660;-59
2022/05/21 11:49:53;;;;;;;2.53;1.75;;;21.50;99.90;;;;;;5054905;28;20203;-58
2022/05/21 11:52:27;;;;;;;1.85;1.40;;;21.30;99.90;;;;;;5055026;28;20270;-59
2022/05/21 11:54:53;;;;;;;2.17;1.00;;;21.70;99.90;;;;;;5054840;28;20730;-58
2022/05/21 11:57:39;;;;;;;1.30;1.20;;;21.90;99.90;;;;;;5054751;28;20186;-59
2022/05/21 12:00:25;;;;;;;2.58;1.40;;;21.70;99.90;;;;;;5054800;28;20220;-58
2022/05/21 12:02:53;;;;;;;1.02;1.00;;;21.70;99.90;;;;;;5047328;28;20198;-58
2022/05/21 12:05:34;;;;;;;1.42;1.10;;;21.70;99.90;;;;;;5054655;28;20203;-58
2022/05/21 12:08:08;;;;;;;1.88;1.23;;;21.40;99.90;;;;;;5054767;28;20546;-59
2022/05/21 12:11:02;;;;;;;3.45;1.40;;;21.00;99.90;;;;;;5054681;28;20336;-59
2022/05/21 12:13:33;;;;;;;1.85;1.50;;;20.70;99.90;;;;;;5054520;28;20171;-58
2022/05/21 12:16:19;;;;;;;2.35;1.60;;;20.80;99.90;;;;;;5054475;28;20179;-59
2022/05/21 12:18:48;;;;;;;3.03;1.92;;;21.00;99.90;;;;;;5054533;28;20198;-58
2022/05/21 12:21:40;;;;;;;3.60;1.90;;;21.00;99.90;;;;;;5054447;28;20167;-59
2022/05/21 12:24:28;;;;;;;3.88;1.75;;;20.80;99.90;;;;;;5054267;28;20635;-58
2022/05/21 12:27:11;;;;;;;2.50;1.60;;;20.60;99.90;;;;;;5054557;28;20296;-59
2022/05/21 12:29:44;;;;;;;2.45;1.75;;;20.70;99.90;;;;;;5054227;28;20209;-58
2022/05/21 12:32:16;;;;;;;4.57;1.90;;;21.00;99.90;;;;;;5054266;28;20183;-59
2022/05/21 12:35:03;;;;;;;3.03;1.80;;;21.20;99.90;;;;;;5054031;28;20182;-59
2022/05/21 12:37:35;;;;;;;2.30;1.42;;;21.00;99.90;;;;;;5053679;28;20258;-59
2022/05/21 12:40:01;;;;;;;2.08;1.70;;;21.00;99.90;;;;;;5054225;28;20175;-58
2022/05/21 12:42:44;;;;;;;1.48;1.38;;;21.20;99.90;;;;;;5053973;28;20174;-58
2022/05/21 12:45:12;;;;;;;1.02;0.80;;;21.70;99.90;;;;;;5053862;28;20221;-59
2022/05/21 12:47:44;;;;;;;1.27;1.00;;;21.70;99.90;;;;;;5053996;28;20179;-58
2022/05/21 12:50:14;;;;;;;1.45;0.80;;;21.90;99.90;;;;;;5053811;28;20203;-59
2022/05/21 12:52:52;;;;;;;2.88;1.17;;;22.20;99.90;;;;;;5053757;28;20182;-58
2022/05/21 12:55:22;;;;;;;1.98;1.13;;;22.30;99.90;;;;;;5053786;28;20179;-58
2022/05/21 12:57:49;;;;;;;2.05;1.05;;;22.00;99.90;;;;;;5053797;28;20175;-59
2022/05/21 13:00:18;;;;;;;2.38;0.93;;;21.90;99.90;;;;;;5053610;28;20182;-59
2022/05/21 13:02:48;;;;;;;1.98;1.13;;;21.90;99.90;;;;;;5053751;28;20239;-58
2022/05/21 13:05:23;;;;;;;2.03;1.10;;;22.10;99.90;;;;;;5053553;28;20163;-58
2022/05/21 13:07:52;;;;;;;1.75;0.90;;;22.00;99.90;;;;;;5053581;28;20175;-58
2022/05/21 13:10:20;;;;;;;1.70;0.90;;;22.20;99.90;;;;;;5053541;28;20206;-58
2022/05/21 13:12:49;;;;;;;2.00;0.80;;;22.10;99.90;;;;;;5053654;28;20190;-59
2022/05/21 13:15:44;;;;;;;1.55;0.60;;;22.10;99.90;;;;;;5053897;28;20178;-58
2022/05/21 13:18:44;;;;;;;2.25;0.52;;;21.90;98.60;;;;;;5053318;28;20257;-60
2022/05/21 13:21:44;;;;;;;0.65;0.63;;;21.80;99.90;;;;;;5053617;28;20175;-59
2022/05/21 13:24:35;;;;;;;0.60;0.60;;;21.60;99.90;;;;;;5053275;28;20520;-59
2022/05/21 13:27:11;;;;;;;3.03;1.00;;;21.50;99.90;;;;;;5053421;28;20646;-58
2022/05/21 13:29:38;;;;;;;0.95;0.50;;;21.50;99.90;;;;;;5053080;28;20210;-59
2022/05/21 13:32:15;;;;;;;2.58;0.82;;;21.60;99.20;;;;;;5053173;28;20210;-58
2022/05/21 13:34:40;;;;;;;1.27;0.70;;;21.60;99.90;;;;;;5052920;28;20206;-58
2022/05/21 13:37:06;;;;;;;1.10;0.68;;;21.80;99.70;;;;;;5052941;28;20175;-58
2022/05/21 13:39:35;;;;;;;1.88;0.88;;;21.70;98.60;;;;;;5053040;28;20179;-58